createdAt,value
2018-10-09T00:01:41.254Z,23.32
2018-10-09T00:04:09.575Z,21.55
2018-10-09T00:06:37.874Z,21.97
2018-10-09T00:09:07.334Z,21.77
2018-10-09T00:11:35.670Z,21.65
2018-10-09T00:14:04.126Z,21.80
2018-10-09T00:16:32.425Z,22.55
2018-10-09T00:19:00.743Z,24.50
2018-10-09T00:21:29.306Z,25.25
2018-10-09T00:23:57.638Z,25.10
2018-10-09T00:26:26.034Z,26.10
2018-10-09T00:28:54.422Z,23.57
2018-10-09T00:31:22.766Z,21.60
2018-10-09T00:33:51.040Z,21.17
2018-10-09T00:36:19.333Z,19.48
2018-10-09T00:38:47.617Z,19.35
2018-10-09T00:41:15.937Z,20.85
2018-10-09T00:43:44.233Z,22.80
2018-10-09T00:46:12.541Z,23.02
2018-10-09T00:48:40.985Z,22.70
2018-10-09T00:51:09.297Z,23.70
2018-10-09T00:53:38.381Z,25.50
2018-10-09T00:56:06.869Z,25.08
2018-10-09T00:58:35.209Z,23.40
2018-10-09T01:01:03.522Z,23.77
2018-10-09T01:03:31.818Z,20.95
2018-10-09T01:06:00.117Z,20.32
2018-10-09T01:08:28.397Z,20.30
2018-10-09T01:10:56.694Z,20.43
2018-10-09T01:13:24.971Z,20.48
2018-10-09T01:15:53.262Z,20.62
2018-10-09T01:18:21.538Z,21.12
2018-10-09T01:20:49.921Z,20.75
2018-10-09T01:23:18.194Z,19.32
2018-10-09T01:25:46.501Z,21.82
2018-10-09T01:28:14.781Z,19.85
2018-10-09T01:30:43.074Z,21.02
2018-10-09T01:33:11.341Z,18.87
2018-10-09T01:35:39.646Z,19.30
2018-10-09T01:38:07.941Z,21.02
2018-10-09T01:40:36.242Z,21.50
2018-10-09T01:43:04.634Z,20.75
2018-10-09T01:45:33.026Z,20.45
2018-10-09T01:48:01.299Z,19.15
2018-10-09T01:50:29.597Z,19.30
2018-10-09T01:52:57.870Z,19.60
2018-10-09T01:55:26.161Z,18.32
2018-10-09T01:57:54.436Z,18.80
2018-10-09T02:00:22.733Z,19.42
2018-10-09T02:02:51.028Z,20.12
2018-10-09T02:05:19.293Z,19.50
2018-10-09T02:07:47.591Z,21.48
2018-10-09T02:10:15.866Z,19.73
2018-10-09T02:12:44.203Z,20.77
2018-10-09T02:15:12.483Z,20.45
2018-10-09T02:17:40.798Z,20.43
2018-10-09T02:20:09.073Z,21.10
2018-10-09T02:22:37.470Z,19.20
2018-10-09T02:25:05.754Z,20.82
2018-10-09T02:27:34.062Z,18.92
2018-10-09T02:30:02.343Z,19.10
2018-10-09T02:32:30.637Z,19.45
2018-10-09T02:34:58.931Z,18.07
2018-10-09T02:37:27.238Z,18.52
2018-10-09T02:39:55.576Z,20.40
2018-10-09T02:42:23.869Z,19.25
2018-10-09T02:44:52.174Z,19.67
2018-10-09T02:47:20.469Z,19.77
2018-10-09T02:49:48.740Z,18.23
2018-10-09T02:52:17.042Z,20.50
2018-10-09T02:54:45.313Z,20.50
2018-10-09T02:57:13.605Z,18.55
2018-10-09T02:59:41.909Z,17.95
2018-10-09T03:02:10.210Z,19.70
2018-10-09T03:04:38.486Z,18.60
2018-10-09T03:07:06.785Z,17.82
2018-10-09T03:09:35.062Z,19.25
2018-10-09T03:12:03.349Z,17.52
2018-10-09T03:14:31.626Z,17.90
2018-10-09T03:17:00.014Z,19.95
2018-10-09T03:19:28.289Z,18.98
2018-10-09T03:21:56.590Z,19.82
2018-10-09T03:24:24.877Z,23.15
2018-10-09T03:26:53.174Z,22.90
2018-10-09T03:29:21.452Z,22.67
2018-10-09T03:31:49.756Z,21.80
2018-10-09T03:34:18.134Z,21.40
2018-10-09T03:36:46.443Z,21.52
2018-10-09T03:39:14.726Z,22.58
2018-10-09T03:41:43.022Z,20.37
2018-10-09T03:44:11.325Z,19.07
2018-10-09T03:46:39.617Z,20.27
2018-10-09T03:49:07.889Z,21.35
2018-10-09T03:51:36.199Z,20.02
2018-10-09T03:54:04.555Z,19.48
2018-10-09T03:56:32.850Z,21.17
2018-10-09T03:59:01.178Z,19.17
2018-10-09T04:01:29.473Z,21.12
2018-10-09T04:03:58.174Z,20.02
2018-10-09T04:06:26.680Z,20.90
2018-10-09T04:08:54.969Z,21.85
2018-10-09T04:11:23.317Z,24.85
2018-10-09T04:13:51.626Z,24.87
2018-10-09T04:16:19.901Z,23.75
2018-10-09T04:18:48.201Z,22.17
2018-10-09T04:21:16.473Z,21.45
2018-10-09T04:23:44.770Z,21.87
2018-10-09T04:26:13.046Z,21.62
2018-10-09T04:28:41.338Z,20.60
2018-10-09T04:31:09.607Z,20.30
2018-10-09T04:33:37.914Z,19.57
2018-10-09T04:36:06.186Z,19.10
2018-10-09T04:38:34.477Z,19.95
2018-10-09T04:41:02.763Z,19.50
2018-10-09T04:43:31.085Z,19.57
2018-10-09T04:45:59.366Z,18.23
2018-10-09T04:48:27.657Z,20.37
2018-10-09T04:50:55.942Z,19.50
2018-10-09T04:53:24.253Z,19.75
2018-10-09T04:55:52.535Z,18.77
2018-10-09T04:58:20.905Z,18.62
2018-10-09T05:00:49.341Z,19.23
2018-10-09T05:03:17.590Z,19.23
2018-10-09T05:05:45.881Z,20.08
2018-10-09T05:08:14.248Z,20.02
2018-10-09T05:10:42.526Z,21.12
2018-10-09T05:13:10.978Z,20.52
2018-10-09T05:15:39.278Z,22.37
2018-10-09T05:18:07.580Z,21.55
2018-10-09T05:20:35.857Z,24.92
2018-10-09T05:23:04.229Z,22.13
2018-10-09T05:25:32.477Z,22.22
2018-10-09T05:28:00.774Z,22.65
2018-10-09T05:30:29.066Z,20.30
2018-10-09T05:32:57.367Z,20.70
2018-10-09T05:35:25.645Z,20.40
2018-10-09T05:37:53.955Z,18.82
2018-10-09T05:40:22.248Z,19.90
2018-10-09T05:42:50.538Z,20.52
2018-10-09T05:45:18.853Z,19.55
2018-10-09T05:47:47.154Z,19.10
2018-10-09T05:50:15.430Z,18.90
2018-10-09T05:52:43.768Z,20.12
2018-10-09T05:55:12.022Z,19.23
2018-10-09T05:57:40.330Z,19.37
2018-10-09T06:00:09.299Z,20.40
2018-10-09T06:02:37.646Z,19.23
2018-10-09T06:05:05.957Z,21.75
2018-10-09T06:07:35.117Z,20.95
2018-10-09T06:10:03.432Z,23.07
2018-10-09T06:12:31.867Z,24.18
2018-10-09T06:15:00.285Z,24.23
2018-10-09T06:17:28.578Z,27.35
2018-10-09T06:19:56.862Z,29.10
2018-10-09T06:22:25.169Z,24.30
2018-10-09T06:24:53.442Z,24.00
2018-10-09T06:27:21.841Z,24.02
2018-10-09T06:29:50.154Z,26.57
2018-10-09T06:32:18.433Z,28.27
2018-10-09T06:34:46.721Z,30.00
2018-10-09T06:37:15.292Z,32.30
2018-10-09T06:39:43.606Z,31.20
2018-10-09T06:42:11.906Z,34.35
2018-10-09T06:44:40.222Z,32.60
2018-10-09T06:47:08.509Z,33.38
2018-10-09T06:49:36.810Z,30.65
2018-10-09T06:52:05.093Z,30.40
2018-10-09T06:54:33.462Z,31.15
2018-10-09T06:57:01.904Z,33.33
2018-10-09T06:59:30.215Z,31.60
2018-10-09T07:01:58.503Z,30.30
2018-10-09T07:04:26.806Z,29.02
2018-10-09T07:06:55.086Z,29.50
2018-10-09T07:09:23.392Z,30.95
2018-10-09T07:11:51.710Z,28.65
2018-10-09T07:14:20.014Z,30.02
2018-10-09T07:16:48.323Z,28.57
2018-10-09T07:19:16.626Z,28.70
2018-10-09T07:21:44.911Z,32.70
2018-10-09T07:24:13.222Z,28.87
2018-10-09T07:26:41.510Z,31.12
2018-10-09T07:29:09.816Z,31.40
2018-10-09T07:31:38.363Z,31.82
2018-10-09T07:34:06.783Z,33.75
2018-10-09T07:36:35.074Z,34.15
2018-10-09T07:39:03.404Z,32.25
2018-10-09T07:41:31.690Z,33.23
2018-10-09T07:44:00.122Z,32.83
2018-10-09T07:46:30.046Z,31.40
2018-10-09T07:48:58.871Z,30.70
2018-10-09T07:51:27.198Z,30.85
2018-10-09T07:53:56.358Z,30.95
2018-10-09T07:56:24.679Z,33.00
2018-10-09T07:58:53.251Z,34.43
2018-10-09T08:01:21.567Z,33.00
2018-10-09T08:03:49.943Z,34.13
2018-10-09T08:06:18.406Z,35.63
2018-10-09T08:08:46.718Z,37.17
2018-10-09T08:11:15.014Z,34.80
2018-10-09T08:13:43.398Z,34.30
2018-10-09T08:16:11.889Z,32.07
2018-10-09T08:18:40.203Z,30.77
2018-10-09T08:21:08.624Z,25.10
2018-10-09T08:23:36.942Z,28.67
2018-10-09T08:26:05.250Z,27.83
2018-10-09T08:28:33.582Z,25.20
2018-10-09T08:31:01.962Z,28.40
2018-10-09T08:33:30.270Z,18.30
2018-10-09T08:35:58.555Z,23.93
2018-10-09T08:38:26.870Z,28.77
2018-10-09T08:40:55.154Z,27.40
2018-10-09T08:43:23.479Z,26.90
2018-10-09T08:45:51.785Z,29.23
2018-10-09T08:48:20.074Z,27.13
2018-10-09T08:50:48.391Z,28.50
2018-10-09T08:53:16.807Z,28.37
2018-10-09T08:55:45.118Z,24.87
2018-10-09T08:58:13.407Z,26.77
2018-10-09T09:00:41.730Z,27.07
2018-10-09T09:03:10.023Z,26.23
2018-10-09T09:05:38.335Z,24.90
2018-10-09T09:08:06.656Z,27.67
2018-10-09T09:10:34.971Z,25.80
2018-10-09T09:13:03.287Z,26.03
2018-10-09T09:15:31.604Z,21.27
2018-10-09T09:17:59.898Z,13.57
2018-10-09T09:20:28.312Z,8.50
2018-10-09T09:22:56.556Z,12.63
2018-10-09T09:25:24.853Z,24.60
2018-10-09T09:27:53.227Z,21.90
2018-10-09T09:30:21.482Z,22.57
2018-10-09T09:32:49.784Z,21.67
2018-10-09T09:35:18.090Z,21.17
2018-10-09T09:37:46.382Z,16.10
2018-10-09T09:40:14.697Z,21.30
2018-10-09T09:42:42.995Z,22.17
2018-10-09T09:45:11.330Z,20.60
2018-10-09T09:47:39.628Z,19.50
2018-10-09T09:50:07.978Z,19.90
2018-10-09T09:52:36.261Z,17.30
2018-10-09T09:55:04.602Z,16.37
2018-10-09T09:57:32.887Z,16.93
2018-10-09T10:00:01.195Z,13.63
2018-10-09T10:02:29.498Z,12.53
2018-10-09T10:04:57.807Z,13.87
2018-10-09T10:07:26.119Z,11.87
2018-10-09T10:09:54.461Z,11.83
2018-10-09T10:12:22.738Z,10.73
2018-10-09T10:14:51.029Z,9.40
2018-10-09T10:17:19.307Z,9.50
2018-10-09T10:19:47.614Z,9.70
2018-10-09T10:22:15.902Z,10.30
2018-10-09T10:24:44.219Z,8.97
2018-10-09T10:27:12.494Z,7.80
2018-10-09T10:29:40.798Z,7.53
2018-10-09T10:32:09.090Z,7.23
2018-10-09T10:34:37.394Z,7.67
2018-10-09T10:37:05.803Z,8.83
2018-10-09T10:39:34.122Z,7.50
2018-10-09T10:42:02.443Z,7.80
2018-10-09T10:44:30.783Z,6.43
2018-10-09T10:46:59.058Z,8.20
2018-10-09T10:49:29.418Z,8.00
2018-10-09T10:52:03.234Z,8.73
2018-10-09T10:54:33.287Z,9.57
2018-10-09T10:57:02.997Z,7.93
2018-10-09T10:59:31.334Z,10.23
2018-10-09T11:01:59.640Z,9.90
2018-10-09T11:04:29.169Z,8.67
2018-10-09T11:06:58.926Z,9.40
2018-10-09T11:09:28.032Z,10.30
2018-10-09T11:11:56.418Z,9.30
2018-10-09T11:14:24.702Z,9.50
2018-10-09T11:16:53.010Z,10.50
2018-10-09T11:19:21.301Z,10.00
2018-10-09T11:21:49.606Z,10.60
2018-10-09T11:24:17.882Z,10.27
2018-10-09T11:26:46.191Z,10.57
2018-10-09T11:29:14.466Z,10.70
2018-10-09T11:31:43.456Z,10.23
2018-10-09T11:34:11.766Z,11.83
2018-10-09T11:36:40.086Z,11.13
2018-10-09T11:39:08.769Z,11.70
2018-10-09T11:41:37.078Z,11.70
2018-10-09T11:44:06.656Z,12.00
2018-10-09T11:46:36.114Z,11.10
2018-10-09T11:49:04.432Z,7.33
2018-10-09T11:51:32.745Z,8.33
2018-10-09T11:54:01.032Z,6.50
2018-10-09T11:56:29.371Z,7.53
2018-10-09T11:58:57.712Z,7.53
2018-10-09T12:01:25.983Z,7.03
2018-10-09T12:03:54.276Z,11.80
2018-10-09T12:06:22.820Z,10.03
2018-10-09T12:08:51.135Z,9.77
2018-10-09T12:11:19.453Z,9.40
2018-10-09T12:13:47.752Z,8.37
2018-10-09T12:16:16.044Z,6.90
2018-10-09T12:18:44.336Z,7.47
2018-10-09T12:21:12.628Z,7.97
2018-10-09T12:23:40.904Z,7.83
2018-10-09T12:26:09.310Z,7.90
2018-10-09T12:28:37.603Z,7.87
2018-10-09T12:31:05.955Z,9.17
2018-10-09T12:33:34.239Z,7.83
2018-10-09T12:36:02.606Z,5.27
2018-10-09T12:38:31.022Z,7.53
2018-10-09T12:40:59.214Z,7.83
2018-10-09T12:43:27.530Z,6.67
2018-10-09T12:45:55.822Z,5.83
2018-10-09T12:48:24.160Z,7.60
2018-10-09T12:50:52.423Z,6.57
2018-10-09T12:53:20.708Z,5.87
2018-10-09T12:55:49.026Z,6.20
2018-10-09T12:58:17.302Z,6.83
2018-10-09T13:00:45.602Z,6.43
2018-10-09T13:03:13.954Z,6.53
2018-10-09T13:05:42.219Z,6.57
2018-10-09T13:08:10.498Z,6.17
2018-10-09T13:10:38.809Z,6.53
2018-10-09T13:13:07.094Z,7.20
2018-10-09T13:15:35.370Z,6.60
2018-10-09T13:18:03.685Z,6.80
2018-10-09T13:20:31.977Z,9.07
2018-10-09T13:23:00.362Z,8.83
2018-10-09T13:25:28.740Z,12.67
2018-10-09T13:27:57.143Z,10.87
2018-10-09T13:30:25.426Z,18.93
2018-10-09T13:32:53.730Z,19.07
2018-10-09T13:35:22.055Z,17.97
2018-10-09T13:37:50.442Z,17.63
2018-10-09T13:40:18.726Z,16.57
2018-10-09T13:42:47.032Z,16.90
2018-10-09T13:45:15.337Z,15.43
2018-10-09T13:47:43.738Z,15.90
2018-10-09T13:50:11.960Z,16.43
2018-10-09T13:52:40.278Z,19.53
2018-10-09T13:55:08.580Z,15.40
2018-10-09T13:57:37.197Z,17.43
2018-10-09T14:00:05.539Z,12.40
2018-10-09T14:02:33.852Z,7.63
2018-10-09T14:05:02.142Z,15.00
2018-10-09T14:07:30.446Z,11.30
2018-10-09T14:09:58.733Z,7.03
2018-10-09T14:12:27.047Z,13.10
2018-10-09T14:14:55.345Z,7.27
2018-10-09T14:17:23.658Z,7.60
2018-10-09T14:19:51.938Z,7.10
2018-10-09T14:22:20.351Z,14.70
2018-10-09T14:24:48.541Z,7.03
2018-10-09T14:27:16.849Z,7.10
2018-10-09T14:29:45.142Z,9.47
2018-10-09T14:32:13.674Z,14.07
2018-10-09T14:34:41.999Z,7.13
2018-10-09T14:37:10.293Z,11.00
2018-10-09T14:39:38.574Z,6.20
2018-10-09T14:42:07.586Z,6.60
2018-10-09T14:44:35.893Z,11.07
2018-10-09T14:47:04.202Z,7.00
2018-10-09T14:49:32.494Z,5.60
2018-10-09T14:52:00.793Z,7.33
2018-10-09T14:54:29.066Z,7.83
2018-10-09T14:56:57.372Z,5.70
2018-10-09T14:59:25.694Z,9.50
2018-10-09T15:01:53.994Z,9.87
2018-10-09T15:04:22.274Z,7.10
2018-10-09T15:06:50.587Z,11.97
2018-10-09T15:09:18.865Z,6.77
2018-10-09T15:11:47.170Z,13.67
2018-10-09T15:14:15.458Z,7.40
2018-10-09T15:16:43.868Z,7.70
2018-10-09T15:19:12.146Z,16.20
2018-10-09T15:21:40.466Z,15.93
2018-10-09T15:24:08.770Z,17.10
2018-10-09T15:26:37.055Z,7.07
2018-10-09T15:29:05.397Z,7.37
2018-10-09T15:31:33.766Z,10.90
2018-10-09T15:34:02.158Z,6.97
2018-10-09T15:36:30.467Z,8.33
2018-10-09T15:38:58.777Z,6.47
2018-10-09T15:41:27.076Z,6.93
2018-10-09T15:43:55.406Z,14.73
2018-10-09T15:46:23.690Z,32.97
2018-10-09T15:48:52.003Z,17.97
2018-10-09T15:51:20.308Z,12.43
2018-10-09T15:53:48.943Z,6.77
2018-10-09T15:56:17.286Z,9.87
2018-10-09T15:58:45.626Z,8.60
2018-10-09T16:01:13.918Z,5.73
2018-10-09T16:03:42.224Z,8.33
2018-10-09T16:06:10.518Z,8.97
2018-10-09T16:08:38.817Z,5.70
2018-10-09T16:11:07.122Z,6.33
2018-10-09T16:13:35.435Z,6.90
2018-10-09T16:16:03.766Z,7.93
2018-10-09T16:18:32.075Z,6.17
2018-10-09T16:21:00.467Z,10.20
2018-10-09T16:23:28.882Z,7.10
2018-10-09T16:25:57.177Z,11.13
2018-10-09T16:28:25.491Z,7.47
2018-10-09T16:30:53.778Z,7.00
2018-10-09T16:33:22.098Z,8.67
2018-10-09T16:35:50.408Z,6.50
2018-10-09T16:38:18.714Z,7.03
2018-10-09T16:40:46.994Z,7.57
2018-10-09T16:43:15.318Z,8.13
2018-10-09T16:45:43.629Z,7.60
2018-10-09T16:48:11.936Z,11.10
2018-10-09T16:50:40.252Z,18.23
2018-10-09T16:53:08.587Z,21.67
2018-10-09T16:55:36.894Z,20.30
2018-10-09T16:58:05.212Z,20.70
2018-10-09T17:00:33.808Z,21.60
2018-10-09T17:03:02.122Z,21.83
2018-10-09T17:05:30.883Z,20.90
2018-10-09T17:07:59.645Z,32.40
2018-10-09T17:10:27.959Z,33.30
2018-10-09T17:12:56.391Z,28.77
2018-10-09T17:15:24.788Z,21.40
2018-10-09T17:17:53.096Z,22.30
2018-10-09T17:20:21.542Z,21.85
2018-10-09T17:22:49.864Z,21.70
2018-10-09T17:25:18.171Z,22.43
2018-10-09T17:27:46.487Z,19.27
2018-10-09T17:30:14.791Z,20.20
2018-10-09T17:32:43.110Z,18.10
2018-10-09T17:35:11.455Z,26.67
2018-10-09T17:37:39.729Z,24.87
2018-10-09T17:40:08.330Z,22.00
2018-10-09T17:42:43.439Z,23.20
2018-10-09T17:45:11.757Z,22.25
2018-10-09T17:47:40.054Z,22.40
2018-10-09T17:50:08.409Z,23.90
2018-10-09T17:52:36.706Z,22.80
2018-10-09T17:55:05.303Z,19.50
2018-10-09T17:57:33.604Z,24.10
2018-10-09T18:00:01.911Z,22.93
2018-10-09T18:02:30.207Z,22.40
2018-10-09T18:04:58.528Z,23.70
2018-10-09T18:07:26.842Z,23.30
2018-10-09T18:09:55.373Z,26.40
2018-10-09T18:12:23.662Z,23.90
2018-10-09T18:14:52.012Z,23.70
2018-10-09T18:17:20.397Z,26.48
2018-10-09T18:19:48.736Z,26.97
2018-10-09T18:22:17.091Z,25.97
2018-10-09T18:24:45.410Z,25.70
2018-10-09T18:27:13.698Z,24.70
2018-10-09T18:29:42.018Z,24.72
2018-10-09T18:32:10.310Z,26.52
2018-10-09T18:34:38.626Z,28.35
2018-10-09T18:37:06.958Z,31.37
2018-10-09T18:39:35.270Z,26.35
2018-10-09T18:42:03.750Z,26.85
2018-10-09T18:44:31.931Z,29.20
2018-10-09T18:47:00.230Z,30.32
2018-10-09T18:49:28.566Z,28.50
2018-10-09T18:51:56.887Z,29.70
2018-10-09T18:54:25.202Z,30.30
2018-10-09T18:56:53.502Z,30.80
2018-10-09T18:59:21.831Z,28.95
2018-10-09T19:01:50.146Z,29.67
2018-10-09T19:04:18.468Z,30.57
2018-10-09T19:06:46.771Z,27.40
2018-10-09T19:09:15.080Z,28.95
2018-10-09T19:11:43.384Z,28.85
2018-10-09T19:14:11.698Z,30.32
2018-10-09T19:16:39.990Z,29.45
2018-10-09T19:19:08.298Z,24.10
2018-10-09T19:21:36.586Z,20.35
2018-10-09T19:24:04.896Z,21.02
2018-10-09T19:26:33.187Z,23.20
2018-10-09T19:29:01.526Z,24.35
2018-10-09T19:31:29.849Z,26.25
2018-10-09T19:33:58.178Z,25.75
2018-10-09T19:36:26.474Z,28.15
2018-10-09T19:38:54.786Z,27.05
2018-10-09T19:41:23.080Z,26.42
2018-10-09T19:43:51.450Z,26.23
2018-10-09T19:46:19.746Z,27.20
2018-10-09T19:48:48.053Z,28.05
2018-10-09T19:51:16.395Z,25.55
2018-10-09T19:53:44.722Z,26.93
2018-10-09T19:56:13.027Z,28.83
2018-10-09T19:58:41.355Z,29.85
2018-10-09T20:01:09.702Z,27.50
2018-10-09T20:03:38.003Z,30.27
2018-10-09T20:06:06.348Z,31.02
2018-10-09T20:08:34.627Z,31.20
2018-10-09T20:11:02.938Z,30.25
2018-10-09T20:13:31.255Z,28.55
2018-10-09T20:15:59.559Z,29.32
2018-10-09T20:18:27.837Z,27.02
2018-10-09T20:20:56.399Z,27.70
2018-10-09T20:23:24.650Z,24.72
2018-10-09T20:25:52.948Z,22.87
2018-10-09T20:28:21.242Z,24.85
2018-10-09T20:30:49.546Z,24.02
2018-10-09T20:33:17.869Z,24.30
2018-10-09T20:35:46.187Z,22.55
2018-10-09T20:38:14.503Z,23.30
2018-10-09T20:40:42.807Z,23.50
2018-10-09T20:43:11.105Z,21.87
2018-10-09T20:45:39.435Z,23.45
2018-10-09T20:48:07.858Z,23.02
2018-10-09T20:50:36.175Z,22.50
2018-10-09T20:53:04.454Z,21.87
2018-10-09T20:55:32.767Z,22.05
2018-10-09T20:58:01.046Z,20.88
2018-10-09T21:00:35.890Z,23.70
2018-10-09T21:03:04.219Z,22.55
2018-10-09T21:05:32.540Z,21.77
2018-10-09T21:08:00.858Z,21.62
2018-10-09T21:10:29.197Z,21.27
2018-10-09T21:12:57.489Z,20.55
2018-10-09T21:15:25.842Z,20.37
2018-10-09T21:17:54.375Z,22.15
2018-10-09T21:20:22.574Z,18.92
2018-10-09T21:22:50.909Z,19.32
2018-10-09T21:25:19.207Z,20.57
2018-10-09T21:27:47.503Z,18.25
2018-10-09T21:30:15.815Z,19.45
2018-10-09T21:32:44.099Z,17.42
2018-10-09T21:35:12.409Z,18.40
2018-10-09T21:37:40.696Z,18.73
2018-10-09T21:40:09.002Z,18.82
2018-10-09T21:42:37.315Z,18.00
2018-10-09T21:45:05.703Z,18.32
2018-10-09T21:47:34.026Z,16.35
2018-10-09T21:50:02.355Z,16.95
2018-10-09T21:52:30.654Z,17.30
2018-10-09T21:54:59.004Z,15.83
2018-10-09T21:57:27.301Z,17.82
2018-10-09T21:59:55.635Z,16.45
2018-10-09T22:02:23.934Z,18.20
2018-10-09T22:04:52.268Z,16.62
2018-10-09T22:07:20.554Z,15.32
2018-10-09T22:09:48.855Z,16.75
2018-10-09T22:12:17.158Z,17.20
2018-10-09T22:14:45.450Z,16.30
2018-10-09T22:17:13.848Z,16.93
2018-10-09T22:19:42.134Z,17.02
2018-10-09T22:22:10.482Z,17.62
2018-10-09T22:24:38.766Z,16.40
2018-10-09T22:27:07.066Z,17.95
2018-10-09T22:29:35.358Z,16.85
2018-10-09T22:32:03.695Z,16.62
2018-10-09T22:34:31.986Z,15.40
2018-10-09T22:37:00.290Z,19.95
2018-10-09T22:39:28.574Z,16.62
2018-10-09T22:41:56.883Z,17.20
2018-10-09T22:44:25.182Z,17.12
2018-10-09T22:46:53.486Z,17.35
2018-10-09T22:49:21.967Z,17.75
2018-10-09T22:51:50.274Z,17.87
2018-10-09T22:54:18.549Z,19.75
2018-10-09T22:56:46.847Z,20.60
2018-10-09T22:59:15.127Z,17.25
2018-10-09T23:01:43.425Z,18.90
2018-10-09T23:04:11.844Z,18.60
2018-10-09T23:06:40.166Z,20.25
2018-10-09T23:09:10.023Z,18.55
2018-10-09T23:11:38.415Z,18.23
2018-10-09T23:14:06.774Z,18.75
2018-10-09T23:16:35.165Z,16.30
2018-10-09T23:19:03.509Z,17.98
2018-10-09T23:21:37.341Z,17.20
2018-10-09T23:24:05.639Z,17.32
2018-10-09T23:26:33.942Z,17.50
2018-10-09T23:29:02.227Z,16.40
2018-10-09T23:31:30.627Z,17.07
2018-10-09T23:33:58.902Z,18.48
2018-10-09T23:36:27.198Z,18.67
2018-10-09T23:38:55.576Z,16.80
2018-10-09T23:41:23.872Z,18.17
2018-10-09T23:43:52.165Z,16.73
2018-10-09T23:46:20.505Z,18.48
2018-10-09T23:48:48.771Z,18.25
2018-10-09T23:51:17.083Z,17.10
2018-10-09T23:53:45.374Z,17.48
2018-10-09T23:56:13.681Z,19.95
2018-10-09T23:58:41.970Z,17.98
